Time;durP1;ratioP1;P1;durP2;ratioP2;P2;SDS_P1;SDS_P2;PMS_P1;PMS_P2;Temp;Humidity;BMP_temperature;BMP_pressure;BME280_temperature;BME280_humidity;BME280_pressure;Samples;Min_cycle;Max_cycle;Signal;HPM_P1;HPM_P2
2023/06/03 00:00:13;;;;;;;6.53;3.03;;;;;;;;;;4825339;29;20514;-78
2023/06/03 00:02:43;;;;;;;7.15;2.42;;;;;;;;;;4821954;29;20058;-76
2023/06/03 00:05:17;;;;;;;4.25;1.92;;;;;;;;;;4826706;29;20042;-74
2023/06/03 00:07:48;;;;;;;6.43;2.70;;;;;;;;;;4824369;29;20129;-75
2023/06/03 00:10:18;;;;;;;9.25;2.90;;;;;;;;;;4822181;29;20055;-76
2023/06/03 00:12:48;;;;;;;6.35;2.33;;;;;;;;;;4817453;29;20403;-75
2023/06/03 00:15:20;;;;;;;7.65;2.72;;;;;;;;;;4817537;29;20077;-74
2023/06/03 00:17:51;;;;;;;7.95;2.78;;;;;;;;;;4817138;29;20054;-74
2023/06/03 00:20:21;;;;;;;4.50;2.80;;;;;;;;;;4816157;29;20054;-76
2023/06/03 00:22:51;;;;;;;6.68;2.40;;;;;;;;;;4817468;29;20077;-75
2023/06/03 00:25:22;;;;;;;2.92;1.80;;;;;;;;;;4817485;29;20053;-76
2023/06/03 00:27:54;;;;;;;3.85;2.40;;;;;;;;;;4817096;29;20403;-76
2023/06/03 00:30:24;;;;;;;5.13;2.35;;;;;;;;;;4829339;29;20065;-75
2023/06/03 00:32:55;;;;;;;5.97;2.58;;;;;;;;;;4815725;29;20061;-75
2023/06/03 00:35:27;;;;;;;9.32;3.25;;;;;;;;;;4816654;29;20054;-75
2023/06/03 00:37:58;;;;;;;3.67;2.40;;;;;;;;;;4816609;29;20050;-75
2023/06/03 00:40:29;;;;;;;11.18;2.65;;;;;;;;;;4816435;29;20062;-74
2023/06/03 00:43:01;;;;;;;3.83;2.30;;;;;;;;;;4815089;29;20042;-75
2023/06/03 00:45:32;;;;;;;5.03;2.38;;;;;;;;;;4815566;29;20478;-77
2023/06/03 00:48:06;;;;;;;11.02;2.97;;;;;;;;;;4815210;29;20063;-76
2023/06/03 00:50:36;;;;;;;5.18;2.75;;;;;;;;;;4814767;29;20085;-75
2023/06/03 00:53:07;;;;;;;7.60;2.20;;;;;;;;;;4814568;29;20050;-75
2023/06/03 00:55:40;;;;;;;3.88;2.10;;;;;;;;;;4814125;29;20058;-75
2023/06/03 00:58:12;;;;;;;6.88;2.20;;;;;;;;;;4828362;29;20058;-75
2023/06/03 01:00:42;;;;;;;9.73;2.63;;;;;;;;;;4815438;29;20054;-75
2023/06/03 01:03:13;;;;;;;6.18;2.38;;;;;;;;;;4828395;29;20065;-76
2023/06/03 01:05:47;;;;;;;7.05;2.25;;;;;;;;;;4814932;29;20404;-76
2023/06/03 01:08:32;;;;;;;3.42;2.30;;;;;;;;;;4829179;29;20055;-75
2023/06/03 01:11:12;;;;;;;3.90;1.60;;;;;;;;;;4830335;29;20066;-78
2023/06/03 01:13:56;;;;;;;6.43;2.10;;;;;;;;;;4816766;29;20054;-75
2023/06/03 01:16:30;;;;;;;4.95;2.30;;;;;;;;;;4814960;29;20065;-74
2023/06/03 01:19:08;;;;;;;3.20;2.00;;;;;;;;;;4829537;29;20061;-74
2023/06/03 01:21:40;;;;;;;5.97;2.20;;;;;;;;;;4816645;29;20074;-73
2023/06/03 01:24:20;;;;;;;4.78;2.13;;;;;;;;;;4816501;29;20057;-75
2023/06/03 01:26:51;;;;;;;2.78;1.50;;;;;;;;;;4816384;29;20046;-75
2023/06/03 01:29:22;;;;;;;7.85;2.40;;;;;;;;;;4817075;29;20061;-74
2023/06/03 01:31:55;;;;;;;3.42;2.42;;;;;;;;;;4830302;29;20058;-74
2023/06/03 01:34:26;;;;;;;7.35;2.22;;;;;;;;;;4816832;29;20058;-74
2023/06/03 01:36:57;;;;;;;5.43;2.08;;;;;;;;;;4816702;29;20054;-74
2023/06/03 01:39:30;;;;;;;5.80;2.53;;;;;;;;;;4830157;29;20065;-75
2023/06/03 01:42:00;;;;;;;5.05;2.05;;;;;;;;;;4829918;29;20058;-75
2023/06/03 01:44:30;;;;;;;3.92;3.00;;;;;;;;;;4820114;29;20070;-73
2023/06/03 01:47:02;;;;;;;9.48;2.83;;;;;;;;;;4819944;29;20062;-75
2023/06/03 01:49:35;;;;;;;7.03;2.45;;;;;;;;;;4820280;29;20494;-76
2023/06/03 01:52:05;;;;;;;5.53;2.53;;;;;;;;;;4819941;29;20058;-73
2023/06/03 01:54:36;;;;;;;4.20;2.95;;;;;;;;;;4833497;29;20062;-76
2023/06/03 01:57:07;;;;;;;4.88;2.45;;;;;;;;;;4833245;29;20113;-75
2023/06/03 01:59:40;;;;;;;4.32;2.65;;;;;;;;;;4833361;29;20054;-74
2023/06/03 02:02:11;;;;;;;5.53;3.47;;;;;;;;;;4833097;29;20542;-74
2023/06/03 02:04:45;;;;;;;5.53;2.78;;;;;;;;;;4820033;29;20062;-75
2023/06/03 02:07:17;;;;;;;9.65;2.58;;;;;;;;;;4819606;29;20564;-77
2023/06/03 02:09:49;;;;;;;4.45;2.17;;;;;;;;;;4832747;29;20069;-74
2023/06/03 02:12:23;;;;;;;5.95;2.20;;;;;;;;;;4833056;29;20066;-74
2023/06/03 02:14:56;;;;;;;4.38;2.60;;;;;;;;;;4817638;29;20069;-74
2023/06/03 02:17:28;;;;;;;6.05;2.55;;;;;;;;;;4832878;29;20537;-74
2023/06/03 02:19:59;;;;;;;2.80;2.03;;;;;;;;;;4833219;29;20074;-74
2023/06/03 02:22:30;;;;;;;5.63;2.33;;;;;;;;;;4819406;29;20062;-74
2023/06/03 02:25:02;;;;;;;3.80;2.30;;;;;;;;;;4819325;29;20511;-74
2023/06/03 02:27:33;;;;;;;4.05;2.13;;;;;;;;;;4832779;29;20054;-74
2023/06/03 02:30:07;;;;;;;7.32;2.88;;;;;;;;;;4832933;29;20058;-76
2023/06/03 02:32:38;;;;;;;6.78;2.42;;;;;;;;;;4819170;29;20050;-74
2023/06/03 02:35:08;;;;;;;5.95;2.75;;;;;;;;;;4832873;29;20069;-74
2023/06/03 02:37:40;;;;;;;4.22;2.15;;;;;;;;;;4832906;29;20061;-74
2023/06/03 02:40:12;;;;;;;3.95;2.65;;;;;;;;;;4832779;29;20061;-74
2023/06/03 02:42:42;;;;;;;4.15;2.22;;;;;;;;;;4832794;29;20054;-74
2023/06/03 02:45:13;;;;;;;3.97;2.13;;;;;;;;;;4818309;29;20050;-73
2023/06/03 02:47:44;;;;;;;5.28;2.88;;;;;;;;;;4818751;29;20055;-73
2023/06/03 02:50:16;;;;;;;7.05;3.13;;;;;;;;;;4818739;29;20646;-74
2023/06/03 02:52:46;;;;;;;9.00;2.85;;;;;;;;;;4832109;29;20070;-73
2023/06/03 02:55:17;;;;;;;9.10;3.35;;;;;;;;;;4818286;29;20054;-73
2023/06/03 02:57:48;;;;;;;5.43;2.90;;;;;;;;;;4818517;29;20050;-75
2023/06/03 03:00:20;;;;;;;4.68;2.95;;;;;;;;;;4818535;29;20050;-74
2023/06/03 03:02:52;;;;;;;5.40;3.40;;;;;;;;;;4832359;29;20065;-74
2023/06/03 03:05:26;;;;;;;5.38;2.67;;;;;;;;;;4818547;29;20057;-74
2023/06/03 03:08:01;;;;;;;6.53;2.95;;;;;;;;;;4832590;29;20082;-74
2023/06/03 03:10:32;;;;;;;6.38;3.60;;;;;;;;;;4832371;29;20058;-75
2023/06/03 03:13:05;;;;;;;7.78;2.72;;;;;;;;;;4832703;29;20062;-75
2023/06/03 03:15:37;;;;;;;4.68;3.10;;;;;;;;;;4831978;29;20061;-74
2023/06/03 03:18:07;;;;;;;5.95;2.25;;;;;;;;;;4816664;29;20067;-73
2023/06/03 03:20:38;;;;;;;3.55;2.53;;;;;;;;;;4831773;29;20073;-77
2023/06/03 03:23:12;;;;;;;3.35;2.15;;;;;;;;;;4818257;29;20057;-74
2023/06/03 03:25:45;;;;;;;5.15;2.40;;;;;;;;;;4832235;29;20054;-75
2023/06/03 03:28:16;;;;;;;4.93;2.70;;;;;;;;;;4818336;29;20045;-74
2023/06/03 03:30:49;;;;;;;7.80;2.47;;;;;;;;;;4832025;29;20079;-73
2023/06/03 03:33:20;;;;;;;6.05;2.60;;;;;;;;;;4831448;29;20058;-74
2023/06/03 03:35:52;;;;;;;8.63;2.38;;;;;;;;;;4831931;29;20668;-75
2023/06/03 03:38:24;;;;;;;6.47;3.70;;;;;;;;;;4831652;29;20054;-74
2023/06/03 03:40:55;;;;;;;7.75;2.85;;;;;;;;;;4831824;29;20066;-75
2023/06/03 03:43:26;;;;;;;6.30;3.03;;;;;;;;;;4831903;29;20046;-74
2023/06/03 03:45:56;;;;;;;4.90;2.35;;;;;;;;;;4831916;29;20057;-75
2023/06/03 03:48:30;;;;;;;3.30;2.20;;;;;;;;;;4818180;29;20054;-78
2023/06/03 03:51:01;;;;;;;2.95;1.98;;;;;;;;;;4817986;29;20061;-75
2023/06/03 03:53:37;;;;;;;9.57;2.10;;;;;;;;;;4831273;29;20073;-73
2023/06/03 03:56:20;;;;;;;6.72;2.50;;;;;;;;;;4831249;29;20523;-75
2023/06/03 03:58:56;;;;;;;3.13;2.10;;;;;;;;;;4830971;29;20558;-74
2023/06/03 04:01:39;;;;;;;6.60;2.83;;;;;;;;;;4831447;29;20058;-75
2023/06/03 04:04:37;;;;;;;5.53;2.47;;;;;;;;;;4831189;29;20057;-74
2023/06/03 04:07:11;;;;;;;3.88;2.30;;;;;;;;;;4817093;29;20050;-75
2023/06/03 04:09:43;;;;;;;5.53;2.20;;;;;;;;;;4831087;29;20058;-74
2023/06/03 04:12:29;;;;;;;7.55;2.58;;;;;;;;;;4817347;29;20051;-75
2023/06/03 04:15:02;;;;;;;8.50;2.60;;;;;;;;;;4830588;29;20058;-75
2023/06/03 04:17:38;;;;;;;4.80;2.38;;;;;;;;;;4831107;29;20054;-74
2023/06/03 04:20:38;;;;;;;4.05;2.20;;;;;;;;;;4831328;29;20419;-74
2023/06/03 04:23:19;;;;;;;4.03;2.70;;;;;;;;;;4830571;29;20055;-75
2023/06/03 04:25:53;;;;;;;8.18;2.65;;;;;;;;;;4830793;29;20054;-76
2023/06/03 04:28:24;;;;;;;4.40;2.78;;;;;;;;;;4830895;29;20065;-75
2023/06/03 04:30:57;;;;;;;5.75;2.65;;;;;;;;;;4830972;29;20062;-74
2023/06/03 04:33:28;;;;;;;5.65;2.55;;;;;;;;;;4816777;29;21143;-74
2023/06/03 04:35:58;;;;;;;10.55;2.80;;;;;;;;;;4830974;29;20625;-75
2023/06/03 04:38:28;;;;;;;8.10;2.90;;;;;;;;;;4830710;29;20805;-74
2023/06/03 04:41:01;;;;;;;6.80;2.50;;;;;;;;;;4830461;29;20075;-73
2023/06/03 04:43:35;;;;;;;4.32;2.83;;;;;;;;;;4830484;29;20061;-73
2023/06/03 04:46:10;;;;;;;4.72;2.35;;;;;;;;;;4830331;29;20054;-76
2023/06/03 04:48:45;;;;;;;8.77;2.83;;;;;;;;;;4830790;29;20514;-74
2023/06/03 04:51:16;;;;;;;2.65;1.88;;;;;;;;;;4830799;29;20055;-74
2023/06/03 04:53:47;;;;;;;5.80;2.90;;;;;;;;;;4816822;29;20057;-74
2023/06/03 04:56:18;;;;;;;6.85;2.53;;;;;;;;;;4830244;29;20065;-75
2023/06/03 04:58:54;;;;;;;4.45;2.63;;;;;;;;;;4817096;29;20072;-74
2023/06/03 05:01:31;;;;;;;3.05;2.35;;;;;;;;;;4830392;29;20054;-73
2023/06/03 05:04:02;;;;;;;3.63;2.25;;;;;;;;;;4816811;29;20078;-74
2023/06/03 05:06:36;;;;;;;4.70;2.30;;;;;;;;;;4816837;29;20054;-75
2023/06/03 05:09:09;;;;;;;8.88;2.80;;;;;;;;;;4830480;29;20404;-74
2023/06/03 05:11:43;;;;;;;4.63;2.47;;;;;;;;;;4816867;29;20047;-74
2023/06/03 05:14:15;;;;;;;3.53;2.47;;;;;;;;;;4829882;29;20056;-75
2023/06/03 05:16:46;;;;;;;5.70;2.88;;;;;;;;;;4829904;29;20061;-74
2023/06/03 05:19:17;;;;;;;6.95;2.97;;;;;;;;;;4816911;29;20151;-74
2023/06/03 05:21:48;;;;;;;5.28;2.53;;;;;;;;;;4830365;29;20054;-74
2023/06/03 05:24:19;;;;;;;3.95;2.20;;;;;;;;;;4829982;29;20065;-75
2023/06/03 05:26:50;;;;;;;5.53;2.67;;;;;;;;;;4830147;29;20074;-75
2023/06/03 05:29:20;;;;;;;4.38;2.25;;;;;;;;;;4829934;29;20046;-74
2023/06/03 05:31:51;;;;;;;3.90;1.65;;;;;;;;;;4830221;29;20538;-74
2023/06/03 05:34:22;;;;;;;3.60;2.13;;;;;;;;;;4830216;29;20074;-74
2023/06/03 05:36:53;;;;;;;2.90;2.08;;;;;;;;;;4830198;29;20419;-74
2023/06/03 05:39:24;;;;;;;3.63;2.50;;;;;;;;;;4816289;29;20411;-76
2023/06/03 05:41:55;;;;;;;6.65;2.80;;;;;;;;;;4829884;29;20141;-74
2023/06/03 05:44:27;;;;;;;6.07;2.58;;;;;;;;;;4829957;29;20050;-75
2023/06/03 05:46:57;;;;;;;7.53;2.67;;;;;;;;;;4829479;29;20070;-74
2023/06/03 05:49:27;;;;;;;5.68;2.63;;;;;;;;;;4830052;29;20065;-74
2023/06/03 05:51:59;;;;;;;4.40;2.85;;;;;;;;;;4829778;29;20097;-74
2023/06/03 05:54:30;;;;;;;7.88;2.60;;;;;;;;;;4829896;29;20054;-74
2023/06/03 05:57:00;;;;;;;7.90;2.33;;;;;;;;;;4829998;29;20423;-74
2023/06/03 05:59:32;;;;;;;3.30;2.10;;;;;;;;;;4830094;29;20500;-74
2023/06/03 06:02:05;;;;;;;5.68;2.50;;;;;;;;;;4829972;29;20494;-74
2023/06/03 06:04:36;;;;;;;3.72;1.85;;;;;;;;;;4816351;29;20050;-74
2023/06/03 06:07:06;;;;;;;2.85;1.90;;;;;;;;;;4817035;29;20046;-75
2023/06/03 06:09:37;;;;;;;3.10;2.00;;;;;;;;;;4829713;29;20321;-75
2023/06/03 06:12:09;;;;;;;2.85;2.10;;;;;;;;;;4829902;29;20054;-74
2023/06/03 06:14:39;;;;;;;4.60;2.17;;;;;;;;;;4815818;29;20061;-74
2023/06/03 06:17:16;;;;;;;4.05;2.03;;;;;;;;;;4829624;29;20084;-74
2023/06/03 06:19:46;;;;;;;4.97;3.05;;;;;;;;;;4816029;29;20055;-74
2023/06/03 06:22:16;;;;;;;2.67;2.00;;;;;;;;;;4829585;29;20059;-74
2023/06/03 06:24:47;;;;;;;2.55;1.90;;;;;;;;;;4829987;29;20644;-74
2023/06/03 06:27:19;;;;;;;2.88;1.73;;;;;;;;;;4829466;29;20530;-75
2023/06/03 06:29:51;;;;;;;2.90;1.63;;;;;;;;;;4831513;29;20426;-74
2023/06/03 06:32:27;;;;;;;2.45;1.90;;;;;;;;;;4832776;29;20503;-74
2023/06/03 06:34:57;;;;;;;3.70;2.00;;;;;;;;;;4832630;29;20058;-74
2023/06/03 06:37:28;;;;;;;3.78;1.75;;;;;;;;;;4833048;29;20073;-74
2023/06/03 06:39:59;;;;;;;2.90;1.83;;;;;;;;;;4818972;29;20046;-75
2023/06/03 06:42:42;;;;;;;3.03;2.33;;;;;;;;;;4832969;29;20054;-74
2023/06/03 06:45:35;;;;;;;4.90;1.90;;;;;;;;;;4818976;29;20426;-75
2023/06/03 06:48:14;;;;;;;2.55;1.30;;;;;;;;;;4832545;29;20062;-74
2023/06/03 06:50:56;;;;;;;3.08;1.67;;;;;;;;;;4832455;29;20069;-75
2023/06/03 06:53:36;;;;;;;2.50;1.65;;;;;;;;;;4817777;29;20062;-75
2023/06/03 06:56:16;;;;;;;3.58;2.08;;;;;;;;;;4833267;29;20055;-73
2023/06/03 06:58:56;;;;;;;2.00;1.55;;;;;;;;;;4833047;29;20050;-75
2023/06/03 07:01:26;;;;;;;3.60;1.67;;;;;;;;;;4832693;29;20064;-75
2023/06/03 07:03:58;;;;;;;3.22;1.75;;;;;;;;;;4832560;29;20783;-75
2023/06/03 07:06:30;;;;;;;3.65;1.83;;;;;;;;;;4818640;29;20054;-74
2023/06/03 07:09:06;;;;;;;2.50;1.40;;;;;;;;;;4832346;29;20058;-74
2023/06/03 07:11:47;;;;;;;1.83;1.33;;;;;;;;;;4832205;29;20065;-75
2023/06/03 07:14:19;;;;;;;2.65;1.58;;;;;;;;;;4832414;29;20065;-74
2023/06/03 07:16:49;;;;;;;1.50;1.10;;;;;;;;;;4832275;29;20061;-74
2023/06/03 07:19:20;;;;;;;3.92;1.50;;;;;;;;;;4832008;29;20062;-74
2023/06/03 07:21:52;;;;;;;3.10;1.35;;;;;;;;;;4818249;29;20046;-74
2023/06/03 07:24:23;;;;;;;2.30;1.50;;;;;;;;;;4817916;29;20058;-74
2023/06/03 07:26:52;;;;;;;;;;;;;;;;;;4819116;29;20054;-74
2023/06/03 07:29:23;;;;;;;2.30;1.65;;;;;;;;;;4831963;29;19928;-74
2023/06/03 07:31:52;;;;;;;;;;;;;;;;;;4832171;29;20069;-75
2023/06/03 07:34:24;;;;;;;1.80;1.20;;;;;;;;;;4817771;29;20312;-74
2023/06/03 07:37:01;;;;;;;6.32;1.70;;;;;;;;;;4831764;29;20085;-74
2023/06/03 07:39:35;;;;;;;2.97;1.75;;;;;;;;;;4831625;29;20070;-74
2023/06/03 07:42:22;;;;;;;2.72;1.58;;;;;;;;;;4831855;29;20054;-73
2023/06/03 07:44:58;;;;;;;1.77;1.30;;;;;;;;;;4831792;29;20061;-74
2023/06/03 07:47:28;;;;;;;3.45;1.08;;;;;;;;;;4817964;29;20532;-74
2023/06/03 07:50:00;;;;;;;2.38;1.08;;;;;;;;;;4817717;29;20434;-74
2023/06/03 07:52:37;;;;;;;2.22;1.52;;;;;;;;;;4817911;29;20051;-74
2023/06/03 07:55:08;;;;;;;2.40;1.65;;;;;;;;;;4831131;29;20062;-73
2023/06/03 07:57:48;;;;;;;3.58;1.65;;;;;;;;;;4817942;29;20065;-73
2023/06/03 08:00:18;;;;;;;7.78;1.70;;;;;;;;;;4817741;29;20507;-75
2023/06/03 08:02:58;;;;;;;2.55;1.55;;;;;;;;;;4817851;29;20054;-74
2023/06/03 08:05:36;;;;;;;6.63;1.23;;;;;;;;;;4830972;29;20043;-74
2023/06/03 08:08:12;;;;;;;4.07;1.58;;;;;;;;;;4817529;29;20046;-75
2023/06/03 08:10:47;;;;;;;2.30;1.40;;;;;;;;;;4817388;29;20065;-74
2023/06/03 08:13:19;;;;;;;5.00;1.33;;;;;;;;;;4818111;29;20054;-74
2023/06/03 08:15:49;;;;;;;1.30;1.20;;;;;;;;;;4817274;29;20062;-74
2023/06/03 08:18:41;;;;;;;3.78;1.10;;;;;;;;;;4817540;29;20046;-75
2023/06/03 08:21:13;;;;;;;3.22;1.40;;;;;;;;;;4817652;29;20039;-74
2023/06/03 08:23:44;;;;;;;5.75;1.50;;;;;;;;;;4830821;29;20054;-74
2023/06/03 08:26:16;;;;;;;3.05;1.40;;;;;;;;;;4817798;29;20766;-74
2023/06/03 08:28:46;;;;;;;3.75;1.58;;;;;;;;;;4830997;29;20050;-74
2023/06/03 08:31:16;;;;;;;1.77;1.25;;;;;;;;;;4830743;29;20070;-75
2023/06/03 08:33:47;;;;;;;1.40;1.10;;;;;;;;;;4817356;29;20415;-73
2023/06/03 08:36:18;;;;;;;2.28;1.20;;;;;;;;;;4816899;29;20058;-74
2023/06/03 08:38:50;;;;;;;2.45;1.60;;;;;;;;;;4816888;29;20046;-74
2023/06/03 08:41:19;;;;;;;;;;;;;;;;;;4817550;29;20051;-74
2023/06/03 08:43:51;;;;;;;2.15;1.00;;;;;;;;;;4816875;29;19929;-74
2023/06/03 08:46:27;;;;;;;1.10;1.00;;;;;;;;;;4817276;29;20047;-73
2023/06/03 08:49:04;;;;;;;3.80;1.50;;;;;;;;;;4817014;29;20054;-74
2023/06/03 08:51:48;;;;;;;2.40;1.30;;;;;;;;;;4816598;29;20514;-74
2023/06/03 08:54:21;;;;;;;3.05;1.42;;;;;;;;;;4816875;29;20046;-74
2023/06/03 08:57:00;;;;;;;1.95;1.40;;;;;;;;;;4830462;29;20062;-73
2023/06/03 08:59:34;;;;;;;2.17;1.58;;;;;;;;;;4816700;29;20046;-73
2023/06/03 09:02:05;;;;;;;2.03;1.25;;;;;;;;;;4816815;29;20042;-73
2023/06/03 09:04:38;;;;;;;2.13;1.33;;;;;;;;;;4816971;29;20058;-74
2023/06/03 09:07:10;;;;;;;3.35;1.40;;;;;;;;;;4817275;29;20042;-73
2023/06/03 09:09:43;;;;;;;2.15;1.50;;;;;;;;;;4816858;29;20054;-75
2023/06/03 09:12:13;;;;;;;1.63;1.30;;;;;;;;;;4816491;29;20050;-74
2023/06/03 09:14:46;;;;;;;2.17;1.55;;;;;;;;;;4816496;29;20062;-73
2023/06/03 09:17:17;;;;;;;1.80;1.20;;;;;;;;;;4816495;29;20054;-75
2023/06/03 09:19:48;;;;;;;1.55;1.08;;;;;;;;;;4817061;29;20050;-76
2023/06/03 09:22:22;;;;;;;3.05;1.60;;;;;;;;;;4816792;29;20415;-75
2023/06/03 09:24:53;;;;;;;1.70;1.20;;;;;;;;;;4816557;29;20050;-75
2023/06/03 09:27:24;;;;;;;1.90;1.30;;;;;;;;;;4816320;29;20057;-75
2023/06/03 09:29:56;;;;;;;1.05;0.90;;;;;;;;;;4816480;29;20046;-75
2023/06/03 09:32:27;;;;;;;1.65;1.23;;;;;;;;;;4816504;29;20047;-75
2023/06/03 09:34:57;;;;;;;6.47;1.20;;;;;;;;;;4816315;29;20054;-75
2023/06/03 09:37:28;;;;;;;3.13;1.77;;;;;;;;;;4816592;29;20046;-75
2023/06/03 09:40:03;;;;;;;1.27;0.90;;;;;;;;;;4816493;29;20046;-75
2023/06/03 09:42:42;;;;;;;3.72;1.30;;;;;;;;;;4816044;29;20515;-77
2023/06/03 09:45:36;;;;;;;2.67;1.67;;;;;;;;;;4816349;29;20526;-74
2023/06/03 09:48:08;;;;;;;1.35;1.15;;;;;;;;;;4829757;29;20569;-75
2023/06/03 09:50:49;;;;;;;2.08;1.30;;;;;;;;;;4815822;29;20054;-77
2023/06/03 09:53:20;;;;;;;5.32;1.40;;;;;;;;;;4816437;29;20069;-75
2023/06/03 09:55:50;;;;;;;1.60;1.20;;;;;;;;;;4818218;29;20042;-75
2023/06/03 09:58:23;;;;;;;1.80;1.33;;;;;;;;;;4834334;29;20046;-74
2023/06/03 10:00:55;;;;;;;3.65;1.35;;;;;;;;;;4834526;29;20062;-75
2023/06/03 10:03:25;;;;;;;8.63;1.58;;;;;;;;;;4834467;29;20061;-74
2023/06/03 10:05:56;;;;;;;1.17;0.98;;;;;;;;;;4838046;29;20060;-75
2023/06/03 10:08:29;;;;;;;3.60;1.40;;;;;;;;;;4837843;29;20525;-74
2023/06/03 10:11:01;;;;;;;2.75;1.40;;;;;;;;;;4837747;29;20085;-76
2023/06/03 10:13:33;;;;;;;1.90;1.35;;;;;;;;;;4838168;29;20065;-75
2023/06/03 10:16:11;;;;;;;6.22;1.63;;;;;;;;;;4837589;29;20865;-75
2023/06/03 10:18:43;;;;;;;1.92;1.13;;;;;;;;;;4851497;29;20053;-75
2023/06/03 10:21:14;;;;;;;6.35;1.35;;;;;;;;;;4837776;29;20050;-75
2023/06/03 10:23:44;;;;;;;2.88;1.50;;;;;;;;;;4837301;29;20053;-78
2023/06/03 10:26:16;;;;;;;2.78;1.60;;;;;;;;;;4838023;29;20070;-75
2023/06/03 10:28:51;;;;;;;2.88;1.15;;;;;;;;;;4837830;29;20411;-75
2023/06/03 10:31:24;;;;;;;1.75;1.55;;;;;;;;;;4837101;29;20537;-75
2023/06/03 10:33:55;;;;;;;3.50;1.60;;;;;;;;;;4837898;29;20050;-76
2023/06/03 10:36:27;;;;;;;6.00;1.60;;;;;;;;;;4837337;29;20054;-75
2023/06/03 10:39:02;;;;;;;6.35;1.40;;;;;;;;;;4836428;29;20049;-75
2023/06/03 10:41:35;;;;;;;2.28;1.50;;;;;;;;;;4836427;29;20053;-75
2023/06/03 10:44:05;;;;;;;3.22;1.83;;;;;;;;;;4836822;29;20054;-74
2023/06/03 10:46:45;;;;;;;3.55;1.95;;;;;;;;;;4836157;29;20077;-74
2023/06/03 10:49:18;;;;;;;5.57;1.70;;;;;;;;;;4836088;29;20053;-74
2023/06/03 10:52:15;;;;;;;2.47;1.80;;;;;;;;;;4835986;29;20057;-73
2023/06/03 10:54:50;;;;;;;5.40;2.10;;;;;;;;;;4837241;29;20065;-73
2023/06/03 10:57:34;;;;;;;5.97;1.92;;;;;;;;;;4837222;29;20064;-75
2023/06/03 11:00:09;;;;;;;7.32;2.00;;;;;;;;;;4836772;29;20062;-74
2023/06/03 11:03:03;;;;;;;2.92;2.00;;;;;;;;;;4837563;29;20054;-73
2023/06/03 11:05:33;;;;;;;10.43;2.40;;;;;;;;;;4836763;29;20050;-74
2023/06/03 11:08:09;;;;;;;3.92;2.42;;;;;;;;;;4836746;29;20053;-73
2023/06/03 11:10:42;;;;;;;6.93;2.47;;;;;;;;;;4836349;29;20495;-75
2023/06/03 11:13:44;;;;;;;4.40;2.05;;;;;;;;;;4836414;29;20562;-74
2023/06/03 11:16:15;;;;;;;3.40;1.88;;;;;;;;;;4836674;29;20053;-75
2023/06/03 11:18:45;;;;;;;6.57;1.80;;;;;;;;;;4836919;29;20053;-74
2023/06/03 11:21:51;;;;;;;4.60;1.60;;;;;;;;;;4836507;29;20062;-75
2023/06/03 11:24:43;;;;;;;6.82;1.95;;;;;;;;;;4815301;29;20061;-74
2023/06/03 11:27:13;;;;;;;8.32;1.92;;;;;;;;;;4836272;29;20066;-73
2023/06/03 11:29:51;;;;;;;10.82;2.70;;;;;;;;;;4836683;29;20506;-74
2023/06/03 11:32:25;;;;;;;6.40;1.80;;;;;;;;;;4849985;29;20069;-74
2023/06/03 11:35:05;;;;;;;8.55;2.22;;;;;;;;;;4836129;29;20533;-76
2023/06/03 11:37:41;;;;;;;7.28;1.73;;;;;;;;;;4835946;29;20068;-74
2023/06/03 11:40:17;;;;;;;13.23;2.70;;;;;;;;;;4836195;29;20061;-75
2023/06/03 11:42:53;;;;;;;6.75;1.75;;;;;;;;;;4835723;29;20414;-74
2023/06/03 11:45:29;;;;;;;5.75;1.90;;;;;;;;;;4836255;29;20054;-75
2023/06/03 11:48:08;;;;;;;3.42;1.50;;;;;;;;;;4836431;29;20061;-74
2023/06/03 11:50:54;;;;;;;5.40;1.77;;;;;;;;;;4850336;29;20058;-73
2023/06/03 11:53:28;;;;;;;13.23;2.75;;;;;;;;;;4835493;29;20054;-77
2023/06/03 11:56:08;;;;;;;6.60;2.20;;;;;;;;;;4836397;29;20060;-75
2023/06/03 11:58:40;;;;;;;4.65;3.08;;;;;;;;;;4836017;29;20404;-74
2023/06/03 12:01:17;;;;;;;6.47;1.75;;;;;;;;;;4835703;29;20049;-75
2023/06/03 12:03:59;;;;;;;13.57;2.92;;;;;;;;;;4835943;29;20601;-75
2023/06/03 12:06:39;;;;;;;11.65;2.30;;;;;;;;;;4836412;29;20049;-74
2023/06/03 12:09:10;;;;;;;4.03;1.58;;;;;;;;;;4835469;29;20050;-74
2023/06/03 12:11:42;;;;;;;5.07;1.45;;;;;;;;;;4835494;29;20057;-74
2023/06/03 12:14:33;;;;;;;6.72;1.80;;;;;;;;;;4835457;29;20060;-74
2023/06/03 12:17:15;;;;;;;4.97;1.60;;;;;;;;;;4835714;29;20050;-74
2023/06/03 12:19:47;;;;;;;12.45;2.00;;;;;;;;;;4835603;29;20058;-74
2023/06/03 12:22:26;;;;;;;6.03;1.30;;;;;;;;;;4835534;29;20050;-77
2023/06/03 12:24:57;;;;;;;10.60;2.20;;;;;;;;;;4835369;29;20053;-77
2023/06/03 12:27:30;;;;;;;11.13;1.70;;;;;;;;;;4834643;29;20143;-75
2023/06/03 12:30:02;;;;;;;9.05;1.70;;;;;;;;;;4834993;29;20502;-74
2023/06/03 12:32:57;;;;;;;3.17;1.50;;;;;;;;;;4835730;29;20065;-75
2023/06/03 12:35:29;;;;;;;5.93;1.33;;;;;;;;;;4835580;29;20502;-80
2023/06/03 12:38:05;;;;;;;8.77;1.58;;;;;;;;;;4834997;29;20054;-74
2023/06/03 12:40:36;;;;;;;3.55;1.77;;;;;;;;;;4834838;29;20055;-76
2023/06/03 12:43:17;;;;;;;9.00;1.60;;;;;;;;;;4834827;29;20057;-76
2023/06/03 12:45:48;;;;;;;4.22;1.45;;;;;;;;;;4835141;29;20050;-75
2023/06/03 12:48:28;;;;;;;4.68;1.85;;;;;;;;;;4834627;29;20050;-74
2023/06/03 12:51:02;;;;;;;4.63;1.85;;;;;;;;;;4849245;29;20053;-74
2023/06/03 12:53:33;;;;;;;14.90;2.65;;;;;;;;;;4834524;29;20068;-75
2023/06/03 12:56:04;;;;;;;3.72;2.30;;;;;;;;;;4834962;29;20061;-75
2023/06/03 12:58:37;;;;;;;11.68;3.20;;;;;;;;;;4835084;29;20430;-74
2023/06/03 13:01:08;;;;;;;2.72;2.00;;;;;;;;;;4834986;29;20046;-75
2023/06/03 13:03:39;;;;;;;9.98;2.35;;;;;;;;;;4847955;29;20050;-75
2023/06/03 13:06:09;;;;;;;3.65;2.15;;;;;;;;;;4834877;29;20054;-77
2023/06/03 13:08:40;;;;;;;9.80;2.85;;;;;;;;;;4834813;29;20049;-76
2023/06/03 13:11:11;;;;;;;3.00;2.22;;;;;;;;;;4834973;29;20490;-76
2023/06/03 13:13:41;;;;;;;8.38;2.50;;;;;;;;;;4834455;29;20053;-76
2023/06/03 13:16:11;;;;;;;5.00;1.83;;;;;;;;;;4834107;29;20056;-76
2023/06/03 13:18:42;;;;;;;5.07;2.00;;;;;;;;;;4834514;29;20057;-76
2023/06/03 13:21:12;;;;;;;2.70;2.03;;;;;;;;;;4834932;29;20053;-75
2023/06/03 13:23:42;;;;;;;4.10;2.25;;;;;;;;;;4834915;29;20061;-76
2023/06/03 13:26:13;;;;;;;6.43;2.17;;;;;;;;;;4834846;29;20054;-80
2023/06/03 13:28:43;;;;;;;7.13;1.95;;;;;;;;;;4834550;29;20046;-76
2023/06/03 13:31:14;;;;;;;1.67;1.20;;;;;;;;;;4834351;29;20053;-75
2023/06/03 13:33:44;;;;;;;7.38;1.63;;;;;;;;;;4834129;29;20511;-76
2023/06/03 13:36:15;;;;;;;10.40;1.90;;;;;;;;;;4834558;29;20062;-78
2023/06/03 13:38:48;;;;;;;6.70;1.10;;;;;;;;;;4837311;29;20077;-76
2023/06/03 13:41:18;;;;;;;4.22;1.60;;;;;;;;;;4838304;29;20061;-76
2023/06/03 13:43:50;;;;;;;5.97;1.45;;;;;;;;;;4838425;29;20057;-76
2023/06/03 13:46:21;;;;;;;3.58;1.30;;;;;;;;;;4838382;29;20407;-78
2023/06/03 13:48:52;;;;;;;1.23;1.13;;;;;;;;;;4838247;29;20054;-78
2023/06/03 13:51:22;;;;;;;2.97;1.75;;;;;;;;;;4838557;29;20046;-76
2023/06/03 13:53:52;;;;;;;8.88;2.63;;;;;;;;;;4838293;29;20050;-77
2023/06/03 13:56:23;;;;;;;6.07;1.88;;;;;;;;;;4838417;29;20053;-76
2023/06/03 13:58:54;;;;;;;5.30;1.70;;;;;;;;;;4852379;29;20064;-77
2023/06/03 14:01:28;;;;;;;7.07;2.03;;;;;;;;;;4837832;29;20061;-75
2023/06/03 14:03:58;;;;;;;3.90;1.52;;;;;;;;;;4837919;29;20061;-75
2023/06/03 14:06:29;;;;;;;6.68;1.80;;;;;;;;;;4837335;29;20054;-75
2023/06/03 14:09:00;;;;;;;6.82;2.35;;;;;;;;;;4838110;29;20057;-77
2023/06/03 14:11:31;;;;;;;4.53;2.13;;;;;;;;;;4837722;29;20050;-78
2023/06/03 14:14:03;;;;;;;4.57;1.90;;;;;;;;;;4838219;29;20049;-77
2023/06/03 14:16:33;;;;;;;3.85;1.80;;;;;;;;;;4838133;29;20057;-77
2023/06/03 14:19:04;;;;;;;6.63;2.25;;;;;;;;;;4837605;29;20045;-77
2023/06/03 14:21:34;;;;;;;4.28;1.83;;;;;;;;;;4837655;29;20050;-77
2023/06/03 14:24:06;;;;;;;8.73;1.83;;;;;;;;;;4851741;29;20526;-78
2023/06/03 14:26:37;;;;;;;2.90;1.98;;;;;;;;;;4851204;29;20081;-77
2023/06/03 14:29:10;;;;;;;2.85;1.98;;;;;;;;;;4851805;29;20050;-77
2023/06/03 14:31:40;;;;;;;3.92;2.10;;;;;;;;;;4837194;29;20066;-75
2023/06/03 14:34:12;;;;;;;2.72;1.92;;;;;;;;;;4837950;29;20050;-78
2023/06/03 14:36:42;;;;;;;3.60;2.13;;;;;;;;;;4837172;29;20062;-77
2023/06/03 14:39:16;;;;;;;9.88;2.30;;;;;;;;;;4837107;29;20054;-75
2023/06/03 14:41:46;;;;;;;5.72;2.25;;;;;;;;;;4837603;29;20058;-78
2023/06/03 14:44:16;;;;;;;12.80;2.50;;;;;;;;;;4851172;29;20441;-75
2023/06/03 14:46:47;;;;;;;5.47;2.20;;;;;;;;;;4837592;29;20053;-75
2023/06/03 14:49:24;;;;;;;6.22;1.95;;;;;;;;;;4836655;29;20061;-76
2023/06/03 14:51:55;;;;;;;6.22;2.60;;;;;;;;;;4850830;29;20054;-78
2023/06/03 14:54:26;;;;;;;6.63;2.08;;;;;;;;;;4850972;29;20053;-79
2023/06/03 14:56:56;;;;;;;7.78;2.22;;;;;;;;;;4837010;29;20046;-75
2023/06/03 14:59:27;;;;;;;4.65;2.22;;;;;;;;;;4837508;29;20552;-75
2023/06/03 15:01:56;;;;;;;6.20;2.47;;;;;;;;;;4851253;29;20053;-76
2023/06/03 15:04:27;;;;;;;11.85;2.72;;;;;;;;;;4837201;29;20046;-76
2023/06/03 15:06:58;;;;;;;7.95;2.40;;;;;;;;;;4836573;29;20510;-76
2023/06/03 15:09:28;;;;;;;3.83;2.00;;;;;;;;;;4836602;29;20042;-75
2023/06/03 15:12:00;;;;;;;3.50;1.90;;;;;;;;;;4836883;29;20058;-77
2023/06/03 15:14:30;;;;;;;5.82;2.10;;;;;;;;;;4837301;29;20046;-77
2023/06/03 15:17:00;;;;;;;2.38;1.92;;;;;;;;;;4837504;29;20049;-76
2023/06/03 15:19:31;;;;;;;8.98;2.50;;;;;;;;;;4836758;29;20063;-75